createdAt,value
2023-02-19T00:02:26.128Z,8.70
2023-02-19T00:04:53.551Z,8.70
2023-02-19T00:07:21.237Z,8.60
2023-02-19T00:09:48.652Z,8.60
2023-02-19T00:12:16.040Z,8.50
2023-02-19T00:14:43.498Z,8.60
2023-02-19T00:17:10.906Z,8.40
2023-02-19T00:19:38.359Z,8.50
2023-02-19T00:22:05.790Z,8.40
2023-02-19T00:24:33.150Z,8.30
2023-02-19T00:27:00.548Z,8.40
2023-02-19T00:29:27.940Z,8.40
2023-02-19T00:31:55.504Z,8.30
2023-02-19T00:34:22.975Z,8.10
2023-02-19T00:36:50.366Z,7.90
2023-02-19T00:39:18.661Z,7.80
2023-02-19T00:41:46.524Z,7.60
2023-02-19T00:44:15.239Z,7.60
2023-02-19T00:46:47.470Z,7.70
2023-02-19T00:49:16.529Z,7.70
2023-02-19T00:51:43.962Z,7.70
2023-02-19T00:54:12.363Z,7.70
2023-02-19T00:56:39.867Z,7.70
2023-02-19T00:59:07.438Z,7.50
2023-02-19T01:01:35.075Z,7.50
2023-02-19T01:04:04.261Z,7.40
2023-02-19T01:06:33.036Z,7.30
2023-02-19T01:09:00.503Z,7.30
2023-02-19T01:11:27.985Z,7.20
2023-02-19T01:13:59.060Z,7.00
2023-02-19T01:16:27.610Z,7.00
2023-02-19T01:18:56.414Z,6.90
2023-02-19T01:21:25.833Z,6.90
2023-02-19T01:23:53.341Z,7.00
2023-02-19T01:26:23.259Z,7.00
2023-02-19T01:28:50.942Z,6.90
2023-02-19T01:31:21.247Z,6.90
2023-02-19T01:33:57.771Z,7.00
2023-02-19T01:36:26.286Z,7.10
2023-02-19T01:38:53.877Z,7.20
2023-02-19T01:41:25.418Z,7.30
2023-02-19T01:44:08.865Z,7.40
2023-02-19T01:46:38.513Z,7.40
2023-02-19T01:49:23.527Z,7.30
2023-02-19T01:52:26.887Z,7.50
2023-02-19T01:54:56.555Z,7.60
2023-02-19T01:57:27.976Z,7.70
2023-02-19T02:00:03.209Z,7.70
2023-02-19T02:02:42.226Z,7.70
2023-02-19T02:05:21.882Z,7.60
2023-02-19T02:08:07.732Z,7.60
2023-02-19T02:10:35.255Z,7.60
2023-02-19T02:13:03.323Z,7.60
2023-02-19T02:15:48.644Z,7.30
2023-02-19T02:18:26.430Z,7.10
2023-02-19T02:21:19.652Z,7.10
2023-02-19T02:24:07.250Z,7.20
2023-02-19T02:27:05.133Z,7.20
2023-02-19T02:30:06.991Z,7.00
2023-02-19T02:33:14.062Z,6.60
2023-02-19T02:36:16.637Z,6.10
2023-02-19T02:38:45.148Z,6.10
2023-02-19T02:41:15.108Z,6.20
2023-02-19T02:43:42.569Z,5.90
2023-02-19T02:46:12.633Z,5.70
2023-02-19T02:49:18.010Z,5.50
2023-02-19T02:51:51.094Z,5.40
2023-02-19T02:54:52.233Z,5.20
2023-02-19T02:57:22.074Z,5.20
2023-02-19T02:59:54.009Z,5.40
2023-02-19T03:02:26.218Z,5.50
2023-02-19T03:05:33.646Z,5.30
2023-02-19T03:08:09.936Z,5.40
2023-02-19T03:10:46.012Z,5.30
2023-02-19T03:13:40.313Z,5.20
2023-02-19T03:16:41.748Z,5.20
2023-02-19T03:19:20.036Z,5.10
2023-02-19T03:22:09.988Z,5.10
2023-02-19T03:25:02.929Z,5.10
2023-02-19T03:27:35.576Z,5.10
2023-02-19T03:30:09.404Z,5.30
2023-02-19T03:32:53.506Z,5.30
2023-02-19T03:35:28.874Z,5.30
2023-02-19T03:38:05.232Z,5.30
2023-02-19T03:40:44.446Z,5.30
2023-02-19T03:43:42.466Z,5.50
2023-02-19T03:46:34.096Z,5.70
2023-02-19T03:49:23.623Z,5.60
2023-02-19T03:52:01.372Z,5.60
2023-02-19T03:54:34.597Z,5.80
2023-02-19T03:57:23.108Z,5.80
2023-02-19T04:00:03.436Z,5.80
2023-02-19T04:03:04.412Z,5.80
2023-02-19T04:05:37.460Z,5.90
2023-02-19T04:08:15.604Z,6.00
2023-02-19T04:10:49.440Z,6.00
2023-02-19T04:13:38.805Z,6.20
2023-02-19T04:16:16.321Z,6.20
2023-02-19T04:18:46.759Z,6.30
2023-02-19T04:21:15.620Z,6.30
2023-02-19T04:23:45.544Z,6.40
2023-02-19T04:26:15.100Z,6.50
2023-02-19T04:28:44.196Z,6.50
2023-02-19T04:31:12.291Z,6.40
2023-02-19T04:33:40.002Z,6.40
2023-02-19T04:36:10.528Z,6.50
2023-02-19T04:38:38.349Z,6.40
2023-02-19T04:41:05.851Z,6.40
2023-02-19T04:43:33.245Z,6.50
2023-02-19T04:46:01.983Z,6.50
2023-02-19T04:48:29.510Z,6.40
2023-02-19T04:50:57.162Z,6.50
2023-02-19T04:53:24.709Z,6.50
2023-02-19T04:55:53.462Z,6.50
2023-02-19T04:58:21.526Z,6.50
2023-02-19T05:00:52.945Z,6.60
2023-02-19T05:03:20.422Z,6.60
2023-02-19T05:05:47.848Z,6.60
2023-02-19T05:08:15.267Z,6.50
2023-02-19T05:10:42.738Z,6.60
2023-02-19T05:13:10.212Z,6.50
2023-02-19T05:15:37.625Z,6.50
2023-02-19T05:18:05.255Z,6.50
2023-02-19T05:20:32.743Z,6.40
2023-02-19T05:23:00.101Z,6.40
2023-02-19T05:25:27.480Z,6.40
2023-02-19T05:28:14.813Z,6.30
2023-02-19T05:30:42.266Z,6.30
2023-02-19T05:33:09.921Z,6.30
2023-02-19T05:36:07.860Z,6.40
2023-02-19T05:38:36.029Z,6.50
2023-02-19T05:41:19.617Z,6.50
2023-02-19T05:43:48.743Z,6.40
2023-02-19T05:46:19.742Z,6.40
2023-02-19T05:48:49.006Z,6.50
2023-02-19T05:51:20.559Z,6.60
2023-02-19T05:53:48.552Z,6.60
2023-02-19T05:56:37.854Z,6.50
2023-02-19T05:59:20.757Z,6.60
2023-02-19T06:01:50.094Z,6.60
2023-02-19T06:04:19.981Z,6.60
2023-02-19T06:06:48.292Z,6.60
2023-02-19T06:09:15.676Z,6.60
2023-02-19T06:11:43.634Z,6.60
2023-02-19T06:14:13.959Z,6.50
2023-02-19T06:16:41.902Z,6.50
2023-02-19T06:19:09.854Z,6.50
2023-02-19T06:21:37.359Z,6.70
2023-02-19T06:24:06.571Z,6.80
2023-02-19T06:26:34.157Z,7.00
2023-02-19T06:29:01.612Z,6.90
2023-02-19T06:31:29.318Z,6.80
2023-02-19T06:33:56.736Z,6.80
2023-02-19T06:36:24.366Z,6.80
2023-02-19T06:38:51.908Z,7.00
2023-02-19T06:41:19.517Z,6.90
2023-02-19T06:43:47.160Z,7.00
2023-02-19T06:46:14.794Z,7.10
2023-02-19T06:48:43.931Z,7.30
2023-02-19T06:51:18.871Z,7.50
2023-02-19T06:53:46.632Z,7.60
2023-02-19T06:56:30.847Z,7.80
2023-02-19T06:59:00.738Z,7.80
2023-02-19T07:01:33.220Z,7.80
2023-02-19T07:04:01.070Z,7.80
2023-02-19T07:06:28.983Z,7.80
2023-02-19T07:08:58.048Z,7.70
2023-02-19T07:11:26.636Z,7.90
2023-02-19T07:13:58.087Z,7.70
2023-02-19T07:16:26.225Z,7.80
2023-02-19T07:18:56.948Z,7.90
2023-02-19T07:21:24.736Z,7.90
2023-02-19T07:23:52.829Z,7.90
2023-02-19T07:26:21.293Z,8.10
2023-02-19T07:28:50.590Z,8.10
2023-02-19T07:31:19.671Z,8.00
2023-02-19T07:33:47.664Z,7.90
2023-02-19T07:36:16.885Z,8.10
2023-02-19T07:38:45.110Z,8.10
2023-02-19T07:41:13.114Z,8.00
2023-02-19T07:43:41.080Z,7.80
2023-02-19T07:46:14.155Z,7.70
2023-02-19T07:48:42.839Z,7.90
2023-02-19T07:51:19.182Z,7.50
2023-02-19T07:53:47.683Z,7.50
2023-02-19T07:56:15.430Z,7.70
2023-02-19T07:58:43.113Z,7.50
2023-02-19T08:01:39.897Z,7.40
2023-02-19T08:04:07.418Z,7.50
2023-02-19T08:06:34.878Z,7.70
2023-02-19T08:09:03.403Z,7.70
2023-02-19T08:11:49.594Z,7.80
2023-02-19T08:14:17.006Z,7.80
2023-02-19T08:16:51.609Z,7.80
2023-02-19T08:19:19.522Z,7.80
2023-02-19T08:21:46.949Z,7.80
2023-02-19T08:24:14.345Z,7.80
2023-02-19T08:26:41.790Z,8.00
2023-02-19T08:29:09.182Z,8.00
2023-02-19T08:31:36.806Z,7.90
2023-02-19T08:34:04.472Z,7.90
2023-02-19T08:36:31.849Z,8.00
2023-02-19T08:38:59.261Z,7.90
2023-02-19T08:41:27.031Z,7.90
2023-02-19T08:43:54.490Z,7.90
2023-02-19T08:46:22.796Z,7.90
2023-02-19T08:48:50.339Z,7.90
2023-02-19T08:51:17.816Z,7.90
2023-02-19T08:53:45.962Z,7.90
2023-02-19T08:56:15.934Z,8.00
2023-02-19T08:58:43.863Z,8.00
2023-02-19T09:01:13.769Z,7.90
2023-02-19T09:03:42.570Z,8.10
2023-02-19T09:06:20.492Z,8.10
2023-02-19T09:08:47.888Z,8.20
2023-02-19T09:11:15.575Z,8.20
2023-02-19T09:13:44.121Z,8.30
2023-02-19T09:16:12.132Z,8.40
2023-02-19T09:18:40.039Z,8.40
2023-02-19T09:21:07.680Z,8.40
2023-02-19T09:23:36.061Z,8.40
2023-02-19T09:26:07.509Z,8.50
2023-02-19T09:28:35.252Z,8.60
2023-02-19T09:31:06.721Z,8.50
2023-02-19T09:33:34.228Z,8.70
2023-02-19T09:36:01.753Z,8.70
2023-02-19T09:38:30.911Z,8.70
2023-02-19T09:41:00.136Z,8.80
2023-02-19T09:43:29.962Z,8.80
2023-02-19T09:46:38.569Z,8.60
2023-02-19T09:49:17.703Z,8.80
2023-02-19T09:51:50.861Z,8.90
2023-02-19T09:54:23.896Z,8.90
2023-02-19T09:56:53.142Z,9.00
2023-02-19T09:59:27.102Z,8.90
2023-02-19T10:02:13.288Z,8.90
2023-02-19T10:04:43.466Z,8.90
2023-02-19T10:07:17.066Z,8.90
2023-02-19T10:10:02.693Z,9.00
2023-02-19T10:12:32.309Z,9.10
2023-02-19T10:15:15.474Z,9.20
2023-02-19T10:17:42.873Z,9.40
2023-02-19T10:20:19.560Z,9.30
2023-02-19T10:22:47.115Z,9.30
2023-02-19T10:25:16.467Z,9.40
2023-02-19T10:27:44.471Z,9.60
2023-02-19T10:30:23.986Z,9.70
2023-02-19T10:33:13.812Z,10.00
2023-02-19T10:36:18.725Z,9.90
2023-02-19T10:38:47.598Z,9.90
2023-02-19T10:41:17.977Z,9.80
2023-02-19T10:44:06.952Z,10.20
2023-02-19T10:46:45.822Z,10.20
2023-02-19T10:49:23.799Z,10.50
2023-02-19T10:51:53.886Z,10.30
2023-02-19T10:54:28.854Z,10.40
2023-02-19T10:57:15.607Z,10.50
2023-02-19T10:59:51.128Z,10.30
2023-02-19T11:02:20.504Z,10.30
2023-02-19T11:05:02.842Z,10.30
2023-02-19T11:07:30.910Z,10.60
2023-02-19T11:09:59.799Z,10.80
2023-02-19T11:12:35.008Z,10.70
2023-02-19T11:15:25.487Z,10.70
2023-02-19T11:18:22.578Z,10.70
2023-02-19T11:21:24.905Z,11.10
2023-02-19T11:23:52.387Z,11.00
2023-02-19T11:26:22.931Z,11.30
2023-02-19T11:29:01.306Z,10.90
2023-02-19T11:31:36.202Z,11.20
2023-02-19T11:34:29.873Z,11.30
2023-02-19T11:37:13.356Z,11.20
2023-02-19T11:39:47.400Z,11.00
2023-02-19T11:42:29.228Z,11.20
2023-02-19T11:45:09.138Z,11.30
2023-02-19T11:47:42.628Z,11.20
2023-02-19T11:50:15.821Z,11.30
2023-02-19T11:52:55.743Z,11.20
2023-02-19T11:55:53.199Z,11.30
2023-02-19T11:58:39.374Z,11.60
2023-02-19T12:01:38.582Z,11.10
2023-02-19T12:04:21.214Z,11.30
2023-02-19T12:07:06.480Z,11.50
2023-02-19T12:09:39.578Z,11.10
2023-02-19T12:12:09.959Z,10.70
2023-02-19T12:15:09.324Z,10.90
2023-02-19T12:18:13.772Z,11.00
2023-02-19T12:21:14.938Z,11.00
2023-02-19T12:23:54.481Z,11.20
2023-02-19T12:26:27.727Z,11.20
2023-02-19T12:29:22.512Z,11.20
2023-02-19T12:32:09.860Z,11.30
2023-02-19T12:34:58.762Z,11.30
2023-02-19T12:37:48.694Z,10.90
2023-02-19T12:40:42.528Z,11.10
2023-02-19T12:43:21.595Z,11.20
2023-02-19T12:45:54.902Z,11.20
2023-02-19T12:48:47.467Z,11.20
2023-02-19T12:51:14.764Z,11.20
2023-02-19T12:53:59.913Z,11.20
2023-02-19T12:56:52.425Z,11.40
2023-02-19T12:59:43.492Z,11.40
2023-02-19T13:02:22.478Z,11.60
2023-02-19T13:05:23.973Z,11.60
2023-02-19T13:07:54.162Z,11.60
2023-02-19T13:10:58.338Z,11.50
2023-02-19T13:13:38.439Z,11.60
2023-02-19T13:16:18.621Z,11.80
2023-02-19T13:18:52.090Z,11.90
2023-02-19T13:21:41.007Z,12.00
2023-02-19T13:24:13.990Z,12.00
2023-02-19T13:26:59.408Z,12.00
2023-02-19T13:30:04.207Z,12.00
2023-02-19T13:32:49.283Z,12.00
2023-02-19T13:35:45.170Z,12.00
2023-02-19T13:38:13.765Z,12.00
2023-02-19T13:40:43.412Z,12.00
2023-02-19T13:43:26.254Z,11.90
2023-02-19T13:46:06.597Z,12.00
2023-02-19T13:48:36.825Z,12.00
2023-02-19T13:51:16.175Z,12.00
2023-02-19T13:53:44.748Z,12.00
2023-02-19T13:56:31.384Z,12.00
2023-02-19T13:59:12.353Z,12.20
2023-02-19T14:01:51.909Z,12.20
2023-02-19T14:04:43.872Z,12.30
2023-02-19T14:07:11.277Z,12.30
2023-02-19T14:09:41.479Z,12.40
2023-02-19T14:12:16.110Z,12.40
2023-02-19T14:14:44.570Z,12.40
2023-02-19T14:17:41.872Z,12.50
2023-02-19T14:20:09.196Z,12.60
2023-02-19T14:22:57.651Z,12.60
2023-02-19T14:25:30.496Z,12.90
2023-02-19T14:28:03.622Z,12.80
2023-02-19T14:30:34.364Z,12.60
2023-02-19T14:33:10.562Z,12.40
2023-02-19T14:35:42.643Z,12.30
2023-02-19T14:38:30.271Z,12.40
2023-02-19T14:40:58.361Z,12.40
2023-02-19T14:43:26.925Z,12.50
2023-02-19T14:45:59.063Z,12.30
2023-02-19T14:48:47.708Z,12.30
2023-02-19T14:51:38.281Z,12.30
2023-02-19T14:54:29.288Z,12.10
2023-02-19T14:56:58.364Z,12.00
2023-02-19T14:59:30.399Z,11.80
2023-02-19T15:02:03.700Z,11.80
2023-02-19T15:04:36.827Z,11.70
2023-02-19T15:07:08.551Z,11.80
2023-02-19T15:09:47.358Z,11.90
2023-02-19T15:12:26.872Z,11.90
2023-02-19T15:14:57.069Z,11.80
2023-02-19T15:17:30.705Z,11.90
2023-02-19T15:20:05.333Z,11.80
2023-02-19T15:22:32.999Z,11.80
2023-02-19T15:25:02.634Z,12.00
2023-02-19T15:27:30.112Z,11.90
2023-02-19T15:29:57.456Z,11.90
2023-02-19T15:32:27.481Z,11.90
2023-02-19T15:35:03.274Z,11.80
2023-02-19T15:37:33.792Z,11.80
2023-02-19T15:40:07.335Z,11.70
2023-02-19T15:42:37.170Z,11.70
2023-02-19T15:45:18.164Z,11.80
2023-02-19T15:47:55.422Z,11.70
2023-02-19T15:50:34.139Z,11.60
2023-02-19T15:53:14.990Z,11.60
2023-02-19T15:55:54.102Z,11.50
2023-02-19T15:58:40.561Z,11.40
2023-02-19T16:01:13.522Z,11.40
2023-02-19T16:03:41.706Z,11.20
2023-02-19T16:06:15.006Z,11.20
2023-02-19T16:08:49.020Z,11.10
2023-02-19T16:11:22.414Z,11.10
2023-02-19T16:13:51.033Z,11.10
2023-02-19T16:16:29.946Z,11.00
2023-02-19T16:18:57.788Z,11.00
2023-02-19T16:21:26.938Z,11.00
2023-02-19T16:24:03.729Z,10.90
2023-02-19T16:26:42.617Z,10.90
2023-02-19T16:29:36.232Z,10.80
2023-02-19T16:32:06.938Z,10.80
2023-02-19T16:34:41.440Z,10.80
2023-02-19T16:37:38.776Z,10.70
2023-02-19T16:40:09.206Z,10.70
2023-02-19T16:42:49.671Z,10.60
2023-02-19T16:45:18.127Z,10.60
2023-02-19T16:47:48.512Z,10.50
2023-02-19T16:50:18.641Z,10.40
2023-02-19T16:52:55.129Z,10.40
2023-02-19T16:55:23.129Z,10.30
2023-02-19T16:57:50.853Z,10.30
2023-02-19T17:00:21.263Z,10.30
2023-02-19T17:02:51.446Z,10.20
2023-02-19T17:05:20.217Z,10.20
2023-02-19T17:07:48.543Z,10.10
2023-02-19T17:10:23.058Z,10.10
2023-02-19T17:12:51.423Z,10.10
2023-02-19T17:15:19.247Z,10.00
2023-02-19T17:17:46.821Z,10.00
2023-02-19T17:20:27.667Z,10.10
2023-02-19T17:22:55.644Z,10.00
2023-02-19T17:25:23.398Z,10.00
2023-02-19T17:27:50.794Z,10.00
2023-02-19T17:30:25.522Z,10.00
2023-02-19T17:32:53.066Z,9.90
2023-02-19T17:35:20.723Z,9.90
2023-02-19T17:37:48.114Z,9.80
2023-02-19T17:40:33.433Z,9.80
2023-02-19T17:43:02.045Z,9.80
2023-02-19T17:45:29.540Z,9.80
2023-02-19T17:47:56.999Z,9.70
2023-02-19T17:50:30.497Z,9.60
2023-02-19T17:52:58.577Z,9.70
2023-02-19T17:55:26.258Z,9.60
2023-02-19T17:57:53.905Z,9.60
2023-02-19T18:00:27.323Z,9.50
2023-02-19T18:02:55.105Z,9.50
2023-02-19T18:05:23.391Z,9.40
2023-02-19T18:07:51.223Z,9.40
2023-02-19T18:10:20.260Z,9.30
2023-02-19T18:12:47.692Z,9.30
2023-02-19T18:15:18.173Z,9.30
2023-02-19T18:17:45.594Z,9.30
2023-02-19T18:20:15.917Z,9.20
2023-02-19T18:22:43.578Z,9.20
2023-02-19T18:25:11.551Z,9.20
2023-02-19T18:27:39.384Z,9.10
2023-02-19T18:30:08.001Z,9.10
2023-02-19T18:32:36.104Z,9.20
2023-02-19T18:35:04.388Z,9.10
2023-02-19T18:37:32.966Z,9.10
2023-02-19T18:40:01.370Z,9.10
2023-02-19T18:42:29.121Z,9.10
2023-02-19T18:44:56.752Z,9.10
2023-02-19T18:47:25.474Z,9.00
2023-02-19T18:49:56.442Z,9.10
2023-02-19T18:52:26.249Z,9.10
2023-02-19T18:54:55.282Z,9.10
2023-02-19T18:57:24.380Z,9.10
2023-02-19T18:59:52.061Z,9.10
2023-02-19T19:02:20.296Z,9.10
2023-02-19T19:04:52.837Z,9.20
2023-02-19T19:07:21.100Z,9.20
2023-02-19T19:09:48.677Z,9.20
2023-02-19T19:12:16.706Z,9.20
2023-02-19T19:14:45.036Z,9.10
2023-02-19T19:17:12.676Z,9.20
2023-02-19T19:19:41.220Z,9.20
2023-02-19T19:22:08.644Z,9.10
2023-02-19T19:24:36.036Z,9.00
2023-02-19T19:27:03.511Z,9.00
2023-02-19T19:29:31.161Z,9.00
2023-02-19T19:31:58.677Z,9.00
2023-02-19T19:34:26.204Z,9.10
2023-02-19T19:36:53.627Z,9.30
2023-02-19T19:39:21.029Z,9.40
2023-02-19T19:41:54.147Z,9.50
2023-02-19T19:44:21.763Z,9.50
2023-02-19T19:46:50.156Z,9.50
2023-02-19T19:49:22.055Z,9.60
2023-02-19T19:51:49.531Z,9.70
2023-02-19T19:54:16.934Z,9.90
2023-02-19T19:56:46.451Z,9.90
2023-02-19T19:59:16.065Z,9.80
2023-02-19T20:01:54.724Z,9.80
2023-02-19T20:04:23.064Z,9.80
2023-02-19T20:06:50.989Z,9.70
2023-02-19T20:09:18.915Z,9.80
2023-02-19T20:11:51.936Z,9.90
2023-02-19T20:14:20.702Z,10.00
2023-02-19T20:16:49.655Z,10.00
2023-02-19T20:19:18.246Z,10.00
2023-02-19T20:21:53.415Z,9.90
2023-02-19T20:24:26.065Z,9.90
2023-02-19T20:26:54.764Z,9.70
2023-02-19T20:29:22.153Z,9.60
2023-02-19T20:31:51.058Z,9.70
2023-02-19T20:34:18.910Z,9.80
2023-02-19T20:36:48.072Z,9.90
2023-02-19T20:39:17.011Z,9.80
2023-02-19T20:41:49.962Z,9.80
2023-02-19T20:44:18.397Z,9.80
2023-02-19T20:46:48.081Z,9.80
2023-02-19T20:49:17.614Z,9.70
2023-02-19T20:51:50.100Z,9.70
2023-02-19T20:54:18.659Z,9.70
2023-02-19T20:56:51.171Z,9.80
2023-02-19T20:59:20.997Z,9.70
2023-02-19T21:01:48.832Z,9.70
2023-02-19T21:04:18.284Z,9.60
2023-02-19T21:06:45.840Z,9.70
2023-02-19T21:09:13.487Z,9.70
2023-02-19T21:11:40.942Z,9.80
2023-02-19T21:14:09.581Z,9.70
2023-02-19T21:16:37.174Z,9.80
2023-02-19T21:19:04.637Z,9.80
2023-02-19T21:21:34.359Z,9.80
2023-02-19T21:24:02.675Z,9.80
2023-02-19T21:26:38.505Z,9.90
2023-02-19T21:29:08.129Z,9.80
2023-02-19T21:31:43.868Z,9.80
2023-02-19T21:34:13.406Z,9.80
2023-02-19T21:36:40.927Z,9.70
2023-02-19T21:39:09.847Z,9.70
2023-02-19T21:41:37.340Z,9.70
2023-02-19T21:44:04.943Z,9.70
2023-02-19T21:46:33.653Z,9.70
2023-02-19T21:49:01.765Z,9.70
2023-02-19T21:51:32.530Z,9.70
2023-02-19T21:54:00.322Z,9.60
2023-02-19T21:56:29.940Z,9.70
2023-02-19T21:58:57.770Z,9.70
2023-02-19T22:01:26.889Z,9.80
2023-02-19T22:03:54.977Z,9.80
2023-02-19T22:06:29.195Z,9.80
2023-02-19T22:08:57.347Z,9.70
2023-02-19T22:11:25.088Z,9.70
2023-02-19T22:13:52.792Z,9.70
2023-02-19T22:16:20.511Z,9.80
2023-02-19T22:18:52.906Z,9.90
2023-02-19T22:21:22.269Z,9.90
2023-02-19T22:23:51.844Z,10.00
2023-02-19T22:26:28.650Z,10.00
2023-02-19T22:28:58.016Z,10.00
2023-02-19T22:31:27.262Z,10.10
2023-02-19T22:33:56.466Z,10.00
2023-02-19T22:36:26.741Z,10.00
2023-02-19T22:38:54.620Z,10.00
2023-02-19T22:41:22.033Z,10.10
2023-02-19T22:43:50.191Z,10.10
2023-02-19T22:46:20.623Z,10.00
2023-02-19T22:48:48.316Z,10.10
2023-02-19T22:51:17.746Z,10.10
2023-02-19T22:53:50.358Z,10.00
2023-02-19T22:56:19.785Z,10.10
2023-02-19T22:58:47.186Z,10.10
2023-02-19T23:01:15.649Z,10.10
2023-02-19T23:03:57.389Z,10.00
2023-02-19T23:06:33.200Z,10.00
2023-02-19T23:09:11.098Z,9.90
2023-02-19T23:11:39.291Z,10.10
2023-02-19T23:14:07.692Z,10.00
2023-02-19T23:16:38.095Z,10.10
2023-02-19T23:19:07.037Z,10.00
2023-02-19T23:21:34.652Z,10.10
2023-02-19T23:24:02.171Z,10.00
2023-02-19T23:26:29.683Z,10.00
2023-02-19T23:28:57.391Z,10.10
2023-02-19T23:31:26.072Z,10.00
2023-02-19T23:33:55.235Z,9.90
2023-02-19T23:36:23.880Z,10.00
2023-02-19T23:38:51.504Z,10.00
2023-02-19T23:41:19.061Z,10.00
2023-02-19T23:43:46.574Z,9.90
2023-02-19T23:46:17.639Z,9.90
2023-02-19T23:48:46.168Z,9.80
2023-02-19T23:51:13.915Z,9.90
2023-02-19T23:53:41.407Z,9.90
2023-02-19T23:56:08.957Z,9.80
2023-02-19T23:58:36.409Z,9.80
